createdAt,value
2023-04-15T00:00:34.509Z,90.77
2023-04-15T00:01:37.287Z,90.83
2023-04-15T00:02:39.831Z,91.07
2023-04-15T00:03:42.300Z,91.03
2023-04-15T00:04:46.265Z,91.35
2023-04-15T00:05:48.775Z,91.38
2023-04-15T00:06:55.112Z,91.53
2023-04-15T00:07:58.970Z,91.28
2023-04-15T00:09:01.405Z,91.19
2023-04-15T00:10:04.494Z,91.05
2023-04-15T00:11:06.902Z,91.04
2023-04-15T00:12:09.223Z,90.92
2023-04-15T00:13:13.792Z,90.90
2023-04-15T00:14:16.504Z,90.67
2023-04-15T00:15:19.272Z,90.75
2023-04-15T00:16:22.032Z,90.91
2023-04-15T00:17:24.437Z,90.97
2023-04-15T00:18:26.853Z,90.81
2023-04-15T00:19:29.725Z,90.82
2023-04-15T00:20:32.333Z,90.75
2023-04-15T00:21:34.600Z,90.63
2023-04-15T00:22:36.813Z,90.30
2023-04-15T00:23:39.042Z,90.39
2023-04-15T00:24:41.964Z,90.46
2023-04-15T00:25:44.903Z,90.39
2023-04-15T00:26:47.182Z,90.38
2023-04-15T00:27:49.706Z,90.53
2023-04-15T00:28:52.076Z,90.33
2023-04-15T00:29:54.673Z,90.31
2023-04-15T00:30:57.832Z,90.34
2023-04-15T00:32:00.394Z,89.81
2023-04-15T00:33:03.685Z,89.79
2023-04-15T00:34:05.898Z,89.88
2023-04-15T00:35:09.032Z,89.81
2023-04-15T00:36:11.320Z,89.89
2023-04-15T00:37:13.722Z,89.94
2023-04-15T00:38:16.037Z,90.04
2023-04-15T00:39:18.310Z,89.88
2023-04-15T00:40:21.786Z,89.95
2023-04-15T00:41:25.594Z,89.86
2023-04-15T00:42:28.111Z,89.74
2023-04-15T00:43:30.391Z,89.46
2023-04-15T00:44:33.721Z,89.52
2023-04-15T00:45:37.393Z,89.57
2023-04-15T00:46:40.441Z,89.83
2023-04-15T00:47:44.266Z,89.95
2023-04-15T00:48:47.525Z,89.83
2023-04-15T00:49:49.839Z,89.88
2023-04-15T00:50:53.603Z,89.87
2023-04-15T00:51:56.312Z,89.62
2023-04-15T00:52:59.704Z,89.59
2023-04-15T00:54:03.553Z,89.78
2023-04-15T00:55:06.955Z,90.07
2023-04-15T00:56:14.901Z,90.13
2023-04-15T00:57:27.688Z,90.51
2023-04-15T00:58:36.473Z,90.50
2023-04-15T00:59:54.784Z,90.27
2023-04-15T01:01:01.977Z,90.20
2023-04-15T01:02:05.845Z,89.87
2023-04-15T01:03:08.894Z,89.94
2023-04-15T01:04:12.337Z,89.66
2023-04-15T01:05:18.559Z,89.26
2023-04-15T01:06:21.490Z,89.32
2023-04-15T01:07:23.967Z,89.50
2023-04-15T01:08:29.359Z,89.04
2023-04-15T01:09:33.309Z,89.37
2023-04-15T01:10:36.084Z,89.34
2023-04-15T01:11:39.159Z,89.51
2023-04-15T01:12:44.603Z,89.71
2023-04-15T01:13:47.763Z,89.76
2023-04-15T01:14:50.012Z,89.98
2023-04-15T01:15:53.363Z,89.96
2023-04-15T01:16:55.861Z,90.16
2023-04-15T01:17:59.430Z,90.36
2023-04-15T01:19:02.360Z,90.41
2023-04-15T01:20:06.102Z,90.59
2023-04-15T01:21:08.635Z,90.32
2023-04-15T01:22:11.155Z,90.55
2023-04-15T01:23:14.329Z,90.27
2023-04-15T01:24:18.548Z,90.55
2023-04-15T01:25:31.376Z,90.71
2023-04-15T01:26:33.626Z,90.54
2023-04-15T01:27:39.215Z,90.43
2023-04-15T01:28:41.721Z,90.00
2023-04-15T01:29:44.109Z,90.02
2023-04-15T01:30:47.963Z,90.03
2023-04-15T01:31:55.213Z,90.21
2023-04-15T01:32:57.630Z,90.05
2023-04-15T01:34:01.436Z,90.13
2023-04-15T01:35:03.837Z,89.54
2023-04-15T01:36:08.499Z,89.36
2023-04-15T01:37:10.900Z,89.43
2023-04-15T01:38:13.617Z,89.08
2023-04-15T01:39:17.011Z,88.93
2023-04-15T01:40:19.219Z,88.64
2023-04-15T01:41:28.334Z,88.77
2023-04-15T01:42:31.878Z,88.63
2023-04-15T01:43:37.117Z,88.83
2023-04-15T01:44:39.565Z,88.44
2023-04-15T01:45:41.843Z,88.29
2023-04-15T01:46:45.331Z,88.01
2023-04-15T01:47:47.886Z,88.25
2023-04-15T01:48:50.301Z,88.22
2023-04-15T01:49:52.691Z,88.20
2023-04-15T01:50:58.082Z,88.11
2023-04-15T01:52:00.642Z,88.21
2023-04-15T01:53:02.917Z,88.69
2023-04-15T01:54:05.152Z,88.72
2023-04-15T01:55:08.602Z,88.42
2023-04-15T01:56:10.959Z,88.12
2023-04-15T01:57:13.526Z,88.33
2023-04-15T01:58:15.753Z,88.07
2023-04-15T01:59:18.791Z,87.91
2023-04-15T02:00:22.311Z,88.10
2023-04-15T02:01:25.071Z,88.17
2023-04-15T02:02:27.787Z,88.42
2023-04-15T02:03:32.436Z,88.57
2023-04-15T02:04:34.961Z,88.69
2023-04-15T02:05:37.290Z,88.75
2023-04-15T02:06:39.578Z,89.00
2023-04-15T02:07:43.555Z,88.83
2023-04-15T02:08:45.764Z,88.05
2023-04-15T02:09:47.996Z,88.04
2023-04-15T02:10:50.988Z,87.91
2023-04-15T02:11:54.310Z,87.62
2023-04-15T02:12:57.052Z,87.62
2023-04-15T02:14:07.008Z,87.41
2023-04-15T02:15:10.343Z,87.13
2023-04-15T02:16:19.675Z,86.93
2023-04-15T02:17:22.033Z,87.15
2023-04-15T02:18:24.372Z,87.22
2023-04-15T02:19:26.763Z,87.40
2023-04-15T02:20:30.802Z,87.37
2023-04-15T02:21:35.398Z,87.34
2023-04-15T02:22:38.503Z,87.62
2023-04-15T02:23:41.060Z,87.14
2023-04-15T02:24:43.259Z,87.36
2023-04-15T02:25:53.745Z,87.56
2023-04-15T02:26:56.522Z,87.29
2023-04-15T02:27:58.922Z,87.03
2023-04-15T02:29:01.337Z,86.55
2023-04-15T02:30:04.101Z,86.34
2023-04-15T02:31:07.860Z,86.09
2023-04-15T02:32:11.239Z,86.72
2023-04-15T02:33:13.595Z,86.75
2023-04-15T02:34:15.904Z,87.32
2023-04-15T02:35:21.050Z,87.75
2023-04-15T02:36:24.020Z,88.20
2023-04-15T02:37:28.673Z,87.91
2023-04-15T02:38:32.188Z,87.94
2023-04-15T02:39:34.619Z,87.65
2023-04-15T02:40:37.366Z,87.81
2023-04-15T02:41:39.648Z,87.88
2023-04-15T02:42:42.916Z,87.69
2023-04-15T02:43:47.911Z,87.72
2023-04-15T02:44:50.612Z,89.30
2023-04-15T02:45:53.962Z,90.31
2023-04-15T02:46:56.652Z,91.43
2023-04-15T02:47:59.333Z,91.76
2023-04-15T02:49:03.505Z,92.05
2023-04-15T02:50:12.786Z,92.94
2023-04-15T02:51:18.402Z,93.69
2023-04-15T02:52:20.558Z,94.61
2023-04-15T02:53:22.971Z,94.97
2023-04-15T02:54:26.120Z,95.52
2023-04-15T02:55:29.168Z,95.78
2023-04-15T02:56:31.696Z,95.48
2023-04-15T02:57:35.049Z,95.54
2023-04-15T02:58:43.311Z,95.18
2023-04-15T02:59:45.486Z,95.01
2023-04-15T03:00:47.903Z,95.22
2023-04-15T03:01:50.227Z,95.99
2023-04-15T03:02:57.738Z,96.20
2023-04-15T03:04:00.765Z,96.14
2023-04-15T03:05:03.266Z,95.97
2023-04-15T03:06:08.855Z,96.35
2023-04-15T03:07:11.092Z,96.65
2023-04-15T03:08:15.006Z,97.34
2023-04-15T03:09:17.652Z,97.72
2023-04-15T03:10:20.871Z,98.04
2023-04-15T03:11:23.289Z,98.16
2023-04-15T03:12:26.152Z,98.39
2023-04-15T03:13:31.894Z,98.37
2023-04-15T03:14:37.927Z,98.28
2023-04-15T03:15:40.276Z,97.83
2023-04-15T03:16:42.588Z,97.67
2023-04-15T03:17:44.819Z,97.69
2023-04-15T03:18:48.316Z,97.45
2023-04-15T03:19:50.708Z,97.34
2023-04-15T03:20:53.254Z,97.52
2023-04-15T03:21:55.625Z,97.43
2023-04-15T03:22:58.183Z,97.04
2023-04-15T03:24:01.604Z,97.18
2023-04-15T03:25:07.715Z,97.23
2023-04-15T03:26:09.964Z,96.75
2023-04-15T03:27:13.223Z,96.13
2023-04-15T03:28:15.768Z,95.76
2023-04-15T03:29:18.334Z,95.45
2023-04-15T03:30:21.585Z,95.53
2023-04-15T03:31:24.298Z,95.27
2023-04-15T03:32:27.222Z,95.50
2023-04-15T03:33:29.730Z,95.89
2023-04-15T03:34:32.363Z,96.25
2023-04-15T03:35:34.945Z,96.18
2023-04-15T03:36:37.678Z,96.39
2023-04-15T03:37:40.030Z,96.23
2023-04-15T03:38:42.748Z,96.44
2023-04-15T03:39:45.725Z,96.61
2023-04-15T03:40:47.990Z,96.61
2023-04-15T03:41:50.509Z,96.53
2023-04-15T03:42:52.893Z,96.76
2023-04-15T03:43:55.103Z,97.03
2023-04-15T03:44:57.675Z,96.75
2023-04-15T03:46:01.750Z,96.53
2023-04-15T03:47:04.227Z,96.93
2023-04-15T03:48:16.474Z,97.00
2023-04-15T03:49:20.169Z,97.35
2023-04-15T03:50:22.773Z,97.33
2023-04-15T03:51:25.001Z,97.20
2023-04-15T03:52:27.203Z,96.71
2023-04-15T03:53:33.105Z,95.84
2023-04-15T03:54:35.520Z,95.38
2023-04-15T03:55:38.011Z,95.05
2023-04-15T03:56:40.214Z,94.72
2023-04-15T03:57:42.496Z,94.66
2023-04-15T03:58:45.046Z,94.32
2023-04-15T03:59:48.171Z,94.73
2023-04-15T04:00:50.512Z,94.49
2023-04-15T04:01:52.859Z,94.39
2023-04-15T04:02:55.571Z,94.18
2023-04-15T04:03:58.093Z,93.69
2023-04-15T04:05:04.040Z,94.18
2023-04-15T04:06:09.340Z,94.47
2023-04-15T04:07:18.397Z,94.09
2023-04-15T04:08:21.734Z,94.74
2023-04-15T04:09:23.994Z,95.05
2023-04-15T04:10:29.972Z,94.96
2023-04-15T04:11:33.468Z,94.73
2023-04-15T04:12:35.986Z,94.38
2023-04-15T04:13:38.790Z,93.41
2023-04-15T04:14:41.109Z,93.45
2023-04-15T04:15:43.399Z,93.99
2023-04-15T04:16:45.937Z,94.67
2023-04-15T04:17:48.416Z,94.49
2023-04-15T04:18:50.978Z,94.42
2023-04-15T04:19:53.254Z,94.04
2023-04-15T04:20:55.602Z,93.81
2023-04-15T04:21:57.889Z,93.83
2023-04-15T04:23:00.139Z,93.86
2023-04-15T04:24:02.454Z,93.65
2023-04-15T04:25:04.933Z,93.62
2023-04-15T04:26:07.404Z,93.33
2023-04-15T04:27:09.617Z,93.29
2023-04-15T04:28:13.233Z,94.06
2023-04-15T04:29:17.915Z,94.75
2023-04-15T04:30:20.358Z,94.56
2023-04-15T04:31:22.655Z,94.66
2023-04-15T04:32:25.111Z,94.50
2023-04-15T04:33:27.376Z,93.91
2023-04-15T04:34:30.255Z,93.93
2023-04-15T04:35:35.074Z,93.98
2023-04-15T04:36:37.325Z,93.84
2023-04-15T04:37:39.708Z,93.15
2023-04-15T04:38:42.132Z,93.77
2023-04-15T04:39:44.347Z,93.63
2023-04-15T04:40:46.838Z,93.59
2023-04-15T04:41:49.779Z,93.70
2023-04-15T04:42:52.047Z,93.69
2023-04-15T04:43:56.481Z,94.20
2023-04-15T04:44:58.678Z,94.21
2023-04-15T04:46:01.411Z,93.83
2023-04-15T04:47:03.688Z,94.02
2023-04-15T04:48:07.320Z,93.98
2023-04-15T04:49:09.814Z,93.63
2023-04-15T04:50:12.182Z,93.02
2023-04-15T04:51:14.440Z,93.03
2023-04-15T04:52:16.745Z,93.49
2023-04-15T04:53:19.284Z,94.10
2023-04-15T04:54:21.680Z,94.35
2023-04-15T04:55:23.916Z,93.96
2023-04-15T04:56:26.581Z,93.88
2023-04-15T04:57:28.791Z,94.14
2023-04-15T04:58:31.536Z,94.19
2023-04-15T04:59:34.063Z,94.64
2023-04-15T05:00:37.958Z,94.56
2023-04-15T05:01:41.276Z,94.17
2023-04-15T05:02:44.220Z,93.89
2023-04-15T05:03:46.839Z,93.66
2023-04-15T05:04:50.413Z,93.60
2023-04-15T05:05:53.114Z,93.90
2023-04-15T05:06:55.582Z,94.01
2023-04-15T05:07:57.856Z,94.30
2023-04-15T05:09:02.782Z,94.13
2023-04-15T05:10:06.694Z,93.56
2023-04-15T05:11:09.291Z,93.94
2023-04-15T05:12:15.033Z,94.35
2023-04-15T05:13:17.286Z,94.36
2023-04-15T05:14:19.765Z,93.80
2023-04-15T05:15:22.708Z,93.50
2023-04-15T05:16:26.136Z,93.06
2023-04-15T05:17:28.407Z,93.38
2023-04-15T05:18:31.002Z,94.12
2023-04-15T05:19:33.221Z,94.11
2023-04-15T05:20:35.444Z,93.81
2023-04-15T05:21:39.547Z,93.30
2023-04-15T05:22:41.926Z,92.69
2023-04-15T05:23:44.188Z,92.80
2023-04-15T05:24:46.612Z,93.37
2023-04-15T05:25:49.052Z,93.41
2023-04-15T05:26:51.558Z,93.07
2023-04-15T05:27:53.941Z,92.87
2023-04-15T05:28:56.150Z,92.35
2023-04-15T05:29:58.397Z,92.31
2023-04-15T05:31:00.911Z,92.36
2023-04-15T05:32:03.116Z,92.13
2023-04-15T05:33:05.459Z,91.80
2023-04-15T05:34:07.731Z,91.50
2023-04-15T05:35:09.972Z,91.53
2023-04-15T05:36:12.805Z,91.98
2023-04-15T05:37:18.150Z,91.56
2023-04-15T05:38:20.435Z,90.89
2023-04-15T05:39:22.678Z,91.01
2023-04-15T05:40:24.986Z,91.28
2023-04-15T05:41:27.173Z,90.76
2023-04-15T05:42:29.649Z,91.09
2023-04-15T05:43:31.929Z,91.08
2023-04-15T05:44:34.175Z,90.84
2023-04-15T05:45:36.532Z,90.08
2023-04-15T05:46:38.995Z,90.18
2023-04-15T05:47:41.316Z,90.67
2023-04-15T05:48:43.567Z,90.83
2023-04-15T05:49:45.847Z,90.79
2023-04-15T05:50:48.331Z,91.01
2023-04-15T05:51:50.856Z,90.99
2023-04-15T05:52:53.089Z,90.93
2023-04-15T05:53:55.615Z,91.01
2023-04-15T05:54:57.949Z,90.60
2023-04-15T05:56:00.268Z,89.59
2023-04-15T05:57:03.056Z,90.71
2023-04-15T05:58:05.275Z,91.46
2023-04-15T05:59:07.629Z,91.71
2023-04-15T06:00:10.762Z,91.17
2023-04-15T06:01:12.984Z,91.52
2023-04-15T06:02:15.556Z,90.71
2023-04-15T06:03:18.115Z,91.26
2023-04-15T06:04:20.598Z,91.76
2023-04-15T06:05:23.137Z,91.64
2023-04-15T06:06:25.347Z,91.47
2023-04-15T06:07:27.610Z,91.52
2023-04-15T06:08:29.897Z,91.33
2023-04-15T06:09:32.333Z,91.20
2023-04-15T06:10:36.802Z,90.82
2023-04-15T06:11:39.247Z,91.25
2023-04-15T06:12:41.773Z,91.53
2023-04-15T06:13:44.083Z,91.73
2023-04-15T06:14:46.624Z,91.84
2023-04-15T06:15:49.525Z,92.56
2023-04-15T06:16:52.320Z,93.02
2023-04-15T06:17:54.601Z,92.91
2023-04-15T06:18:56.853Z,92.71
2023-04-15T06:19:59.063Z,92.44
2023-04-15T06:21:01.360Z,91.93
2023-04-15T06:22:03.881Z,91.59
2023-04-15T06:23:06.444Z,92.44
2023-04-15T06:24:08.691Z,92.88
2023-04-15T06:25:11.196Z,92.72
2023-04-15T06:26:13.398Z,92.42
2023-04-15T06:27:15.902Z,91.94
2023-04-15T06:28:18.155Z,91.62
2023-04-15T06:29:20.593Z,91.59
2023-04-15T06:30:24.408Z,92.03
2023-04-15T06:31:27.320Z,92.22
2023-04-15T06:32:29.872Z,91.88
2023-04-15T06:33:32.266Z,92.08
2023-04-15T06:34:37.692Z,92.61
2023-04-15T06:35:40.590Z,92.78
2023-04-15T06:36:43.063Z,92.87
2023-04-15T06:37:45.732Z,92.64
2023-04-15T06:38:48.036Z,91.96
2023-04-15T06:39:51.748Z,92.02
2023-04-15T06:40:54.050Z,92.25
2023-04-15T06:41:56.885Z,92.46
2023-04-15T06:42:59.462Z,93.22
2023-04-15T06:44:04.250Z,93.50
2023-04-15T06:45:07.043Z,93.81
2023-04-15T06:46:09.536Z,93.59
2023-04-15T06:47:14.688Z,93.01
2023-04-15T06:48:18.043Z,93.19
2023-04-15T06:49:20.220Z,93.43
2023-04-15T06:50:22.958Z,93.74
2023-04-15T06:51:26.745Z,94.45
2023-04-15T06:52:29.616Z,94.94
2023-04-15T06:53:32.250Z,94.90
2023-04-15T06:54:34.544Z,94.81
2023-04-15T06:55:37.037Z,94.85
2023-04-15T06:56:39.258Z,94.77
2023-04-15T06:57:41.656Z,94.75
2023-04-15T06:58:43.917Z,94.55
2023-04-15T06:59:47.040Z,93.81
2023-04-15T07:00:49.393Z,93.96
2023-04-15T07:01:52.006Z,94.60
2023-04-15T07:02:55.375Z,94.67
2023-04-15T07:03:59.817Z,94.50
2023-04-15T07:05:02.083Z,94.24
2023-04-15T07:06:06.640Z,93.73
2023-04-15T07:07:11.548Z,93.11
2023-04-15T07:08:14.131Z,92.20
2023-04-15T07:09:16.337Z,91.66
2023-04-15T07:10:18.729Z,91.50
2023-04-15T07:11:23.382Z,91.12
2023-04-15T07:12:26.863Z,91.13
2023-04-15T07:13:31.972Z,91.13
2023-04-15T07:14:34.209Z,90.76
2023-04-15T07:15:39.021Z,92.56
2023-04-15T07:16:41.822Z,94.19
2023-04-15T07:17:44.107Z,94.77
2023-04-15T07:18:47.050Z,95.04
2023-04-15T07:19:49.348Z,95.17
2023-04-15T07:20:52.200Z,95.13
2023-04-15T07:21:54.536Z,94.92
2023-04-15T07:22:57.610Z,94.54
2023-04-15T07:23:59.986Z,93.71
2023-04-15T07:25:02.465Z,92.65
2023-04-15T07:26:04.813Z,92.44
2023-04-15T07:27:07.511Z,92.49
2023-04-15T07:28:09.895Z,92.90
2023-04-15T07:29:12.320Z,94.13
2023-04-15T07:30:14.959Z,94.83
2023-04-15T07:31:17.514Z,95.70
2023-04-15T07:32:20.185Z,96.29
2023-04-15T07:33:23.480Z,95.94
2023-04-15T07:34:25.910Z,95.24
2023-04-15T07:35:29.382Z,95.25
2023-04-15T07:36:31.592Z,94.85
2023-04-15T07:37:33.811Z,94.68
2023-04-15T07:38:36.048Z,94.53
2023-04-15T07:39:38.475Z,93.66
2023-04-15T07:40:40.939Z,94.35
2023-04-15T07:41:43.483Z,94.60
2023-04-15T07:42:46.186Z,94.47
2023-04-15T07:43:49.120Z,94.58
2023-04-15T07:44:52.125Z,94.08
2023-04-15T07:45:57.095Z,93.08
2023-04-15T07:46:59.571Z,92.43
2023-04-15T07:48:03.142Z,92.78
2023-04-15T07:49:05.665Z,93.37
2023-04-15T07:50:09.519Z,93.78
2023-04-15T07:51:12.963Z,93.84
2023-04-15T07:52:15.361Z,94.43
2023-04-15T07:53:17.595Z,94.42
2023-04-15T07:54:20.287Z,94.27
2023-04-15T07:55:23.470Z,93.86
2023-04-15T07:56:26.520Z,93.42
2023-04-15T07:57:30.118Z,93.08
2023-04-15T07:58:32.370Z,94.37
2023-04-15T07:59:34.678Z,95.22
2023-04-15T08:00:39.500Z,95.38
2023-04-15T08:01:42.566Z,95.18
2023-04-15T08:02:46.897Z,95.54
2023-04-15T08:03:49.635Z,95.58
2023-04-15T08:04:53.246Z,95.57
2023-04-15T08:05:55.562Z,95.08
2023-04-15T08:06:58.502Z,94.88
2023-04-15T08:08:05.879Z,94.56
2023-04-15T08:09:08.305Z,94.11
2023-04-15T08:10:11.052Z,93.98
2023-04-15T08:11:13.525Z,93.78
2023-04-15T08:12:16.040Z,94.31
2023-04-15T08:13:18.741Z,94.20
2023-04-15T08:14:25.030Z,93.60
2023-04-15T08:15:28.460Z,93.89
2023-04-15T08:16:30.788Z,94.32
2023-04-15T08:17:33.631Z,94.48
2023-04-15T08:18:36.079Z,94.67
2023-04-15T08:19:38.532Z,94.69
2023-04-15T08:20:40.767Z,94.76
2023-04-15T08:21:43.084Z,94.20
2023-04-15T08:22:46.475Z,93.42
2023-04-15T08:23:50.571Z,93.13
2023-04-15T08:24:52.775Z,93.20
2023-04-15T08:25:54.976Z,93.26
2023-04-15T08:26:57.671Z,92.71
2023-04-15T08:28:07.252Z,92.70
2023-04-15T08:29:09.549Z,92.63
2023-04-15T08:30:12.425Z,93.30
2023-04-15T08:31:16.407Z,94.14
2023-04-15T08:32:19.222Z,94.57
2023-04-15T08:33:21.595Z,94.79
2023-04-15T08:34:24.332Z,94.85
2023-04-15T08:35:26.576Z,94.74
2023-04-15T08:36:28.831Z,94.54
2023-04-15T08:37:31.212Z,94.80
2023-04-15T08:38:33.851Z,94.06
2023-04-15T08:39:36.250Z,93.50
2023-04-15T08:40:43.016Z,93.00
2023-04-15T08:41:59.243Z,92.62
2023-04-15T08:43:03.889Z,92.56
2023-04-15T08:44:06.706Z,92.70
2023-04-15T08:45:11.433Z,92.49
2023-04-15T08:46:14.087Z,92.71
2023-04-15T08:47:20.882Z,93.47
2023-04-15T08:48:26.519Z,93.29
2023-04-15T08:49:31.160Z,93.09
2023-04-15T08:50:33.637Z,92.77
2023-04-15T08:51:36.086Z,92.55
2023-04-15T08:52:39.114Z,92.30
2023-04-15T08:53:41.812Z,92.42
2023-04-15T08:54:44.088Z,93.00
2023-04-15T08:55:50.831Z,93.57
2023-04-15T08:56:56.179Z,93.86
2023-04-15T08:57:58.940Z,93.48
2023-04-15T08:59:02.025Z,93.15
2023-04-15T09:00:05.527Z,93.12
2023-04-15T09:01:08.596Z,93.43
2023-04-15T09:02:12.240Z,93.78
2023-04-15T09:03:14.799Z,94.14
2023-04-15T09:04:17.383Z,94.29
2023-04-15T09:05:21.655Z,94.28
2023-04-15T09:06:24.291Z,94.13
2023-04-15T09:07:27.680Z,94.17
2023-04-15T09:08:29.916Z,93.94
2023-04-15T09:09:32.861Z,93.41
2023-04-15T09:10:35.757Z,92.87
2023-04-15T09:11:40.385Z,92.70
2023-04-15T09:12:42.850Z,91.99
2023-04-15T09:13:45.613Z,92.43
2023-04-15T09:14:49.491Z,93.49
2023-04-15T09:15:53.688Z,93.88
2023-04-15T09:17:01.379Z,93.64
2023-04-15T09:18:04.307Z,94.03
2023-04-15T09:19:34.384Z,94.50
2023-04-15T09:20:44.664Z,94.29
2023-04-15T09:21:48.028Z,94.25
2023-04-15T09:22:51.144Z,94.16
2023-04-15T09:23:59.649Z,93.99
2023-04-15T09:25:04.211Z,94.66
2023-04-15T09:26:07.196Z,94.94
2023-04-15T09:27:11.434Z,95.23
2023-04-15T09:28:13.621Z,95.22
2023-04-15T09:29:18.527Z,94.41
2023-04-15T09:30:21.293Z,94.37
2023-04-15T09:31:31.528Z,94.67
2023-04-15T09:32:34.935Z,94.55
2023-04-15T09:33:56.149Z,94.31
2023-04-15T09:34:58.654Z,94.11
2023-04-15T09:36:05.705Z,94.38
2023-04-15T09:37:09.194Z,95.00
2023-04-15T09:38:14.041Z,94.75
2023-04-15T09:39:16.201Z,94.79
2023-04-15T09:40:41.184Z,94.20
2023-04-15T09:41:44.650Z,92.93
2023-04-15T09:42:56.726Z,91.64
2023-04-15T09:43:58.997Z,90.78
2023-04-15T09:45:13.689Z,87.14
2023-04-15T09:46:16.204Z,86.12
2023-04-15T09:47:28.193Z,85.96
2023-04-15T09:48:31.511Z,86.55
2023-04-15T09:49:34.178Z,86.72
2023-04-15T09:50:41.250Z,87.01
2023-04-15T09:51:54.142Z,86.49
2023-04-15T09:53:03.975Z,85.75
2023-04-15T09:54:07.385Z,85.28
2023-04-15T09:55:10.562Z,85.46
2023-04-15T09:56:12.899Z,85.97
2023-04-15T09:57:15.986Z,85.38
2023-04-15T09:58:38.761Z,85.48
2023-04-15T09:59:41.399Z,84.85
2023-04-15T10:00:44.036Z,84.35
2023-04-15T10:01:47.116Z,83.96
2023-04-15T10:02:50.182Z,84.00
2023-04-15T10:03:53.628Z,83.52
2023-04-15T10:04:56.757Z,83.12
2023-04-15T10:06:01.067Z,83.05
2023-04-15T10:07:05.294Z,81.49
2023-04-15T10:08:08.648Z,81.29
2023-04-15T10:09:10.862Z,81.22
2023-04-15T10:10:14.291Z,81.16
2023-04-15T10:11:18.784Z,80.87
2023-04-15T10:12:22.780Z,80.50
2023-04-15T10:13:26.424Z,80.32
2023-04-15T10:14:31.341Z,79.99
2023-04-15T10:15:34.415Z,79.53
2023-04-15T10:16:43.132Z,79.72
2023-04-15T10:17:45.674Z,79.38
2023-04-15T10:18:53.368Z,78.68
2023-04-15T10:19:56.203Z,78.67
2023-04-15T10:21:01.343Z,78.44
2023-04-15T10:22:03.733Z,77.51
2023-04-15T10:23:09.019Z,77.36
2023-04-15T10:24:13.140Z,77.26
2023-04-15T10:25:15.780Z,76.66
2023-04-15T10:26:18.017Z,76.58
2023-04-15T10:27:21.039Z,76.14
2023-04-15T10:28:23.586Z,76.57
2023-04-15T10:29:29.112Z,76.72
2023-04-15T10:30:32.760Z,76.30
2023-04-15T10:31:38.171Z,76.54
2023-04-15T10:32:41.544Z,76.19
2023-04-15T10:33:44.820Z,75.87
2023-04-15T10:34:49.212Z,76.57
2023-04-15T10:35:53.944Z,77.65
2023-04-15T10:36:57.918Z,76.94
2023-04-15T10:38:00.243Z,77.51
2023-04-15T10:39:02.677Z,77.34
2023-04-15T10:40:24.686Z,77.44
2023-04-15T10:41:31.085Z,76.69
2023-04-15T10:42:36.475Z,76.30
2023-04-15T10:43:38.925Z,75.48
2023-04-15T10:44:44.885Z,74.94
2023-04-15T10:45:48.720Z,74.91
2023-04-15T10:46:51.960Z,74.10
2023-04-15T10:48:03.678Z,74.33
2023-04-15T10:49:27.975Z,73.75
2023-04-15T10:50:32.608Z,73.25
2023-04-15T10:51:41.607Z,72.91
2023-04-15T10:52:43.971Z,73.59
2023-04-15T10:53:46.348Z,73.01
2023-04-15T10:54:48.822Z,73.18
2023-04-15T10:55:51.246Z,73.21
2023-04-15T10:57:08.683Z,72.78
2023-04-15T10:58:11.233Z,73.54
2023-04-15T10:59:13.444Z,73.70
2023-04-15T11:00:17.380Z,74.01
2023-04-15T11:01:23.237Z,73.18
2023-04-15T11:03:12.278Z,72.22
2023-04-15T11:04:14.857Z,73.03
2023-04-15T11:05:18.736Z,73.56
2023-04-15T11:06:21.048Z,73.35
2023-04-15T11:07:44.774Z,72.48
2023-04-15T11:08:56.146Z,71.62
2023-04-15T11:09:58.503Z,71.47
2023-04-15T11:11:00.708Z,70.22
2023-04-15T11:12:08.642Z,70.21
2023-04-15T11:13:10.971Z,70.98
2023-04-15T11:14:16.445Z,70.37
2023-04-15T11:15:33.936Z,69.91
2023-04-15T11:16:45.064Z,70.60
2023-04-15T11:17:47.564Z,70.73
2023-04-15T11:18:56.133Z,69.56
2023-04-15T11:19:58.829Z,69.12
2023-04-15T11:21:03.791Z,69.86
2023-04-15T11:22:12.733Z,69.83
2023-04-15T11:23:16.098Z,70.29
2023-04-15T11:24:27.185Z,70.52
2023-04-15T11:25:31.574Z,70.33
2023-04-15T11:26:34.458Z,70.42
2023-04-15T11:27:36.636Z,70.55
2023-04-15T11:28:41.465Z,70.21
2023-04-15T11:29:44.245Z,70.51
2023-04-15T11:30:46.503Z,70.51
2023-04-15T11:31:49.703Z,71.05
2023-04-15T11:32:55.327Z,71.75
2023-04-15T11:34:02.230Z,71.29
2023-04-15T11:35:04.725Z,72.00
2023-04-15T11:36:08.149Z,72.80
2023-04-15T11:37:10.483Z,72.46
2023-04-15T11:38:14.218Z,72.16
2023-04-15T11:39:16.756Z,72.49
2023-04-15T11:40:29.660Z,72.47
2023-04-15T11:41:31.937Z,72.26
2023-04-15T11:42:48.607Z,72.31
2023-04-15T11:43:52.815Z,72.84
2023-04-15T11:45:09.590Z,73.31
2023-04-15T11:46:11.901Z,73.54
2023-04-15T11:47:24.312Z,73.41
2023-04-15T11:48:31.711Z,73.90
2023-04-15T11:49:34.997Z,74.05
2023-04-15T11:50:40.635Z,73.86
2023-04-15T11:51:43.246Z,73.77
2023-04-15T11:52:59.586Z,73.22
2023-04-15T11:54:02.018Z,72.61
2023-04-15T11:55:04.599Z,73.03
2023-04-15T11:56:08.976Z,73.28
2023-04-15T11:57:11.395Z,73.66
2023-04-15T11:58:24.106Z,73.48
2023-04-15T11:59:30.180Z,73.53
2023-04-15T12:00:40.114Z,73.31
2023-04-15T12:01:44.098Z,73.30
2023-04-15T12:02:47.465Z,73.83
2023-04-15T12:03:50.326Z,73.34
2023-04-15T12:05:05.796Z,73.50
2023-04-15T12:06:24.863Z,73.17
2023-04-15T12:07:27.302Z,72.97
2023-04-15T12:08:48.440Z,72.76
2023-04-15T12:09:58.069Z,72.44
2023-04-15T12:11:00.262Z,72.02
2023-04-15T12:12:02.514Z,71.90
2023-04-15T12:13:07.259Z,71.78
2023-04-15T12:14:30.240Z,71.34
2023-04-15T12:15:32.956Z,71.25
2023-04-15T12:17:02.948Z,70.62
2023-04-15T12:18:05.727Z,70.79
2023-04-15T12:19:14.980Z,71.05
2023-04-15T12:20:25.492Z,71.21
2023-04-15T12:21:35.154Z,71.57
2023-04-15T12:22:40.196Z,71.67
2023-04-15T12:24:12.714Z,70.78
2023-04-15T12:25:14.932Z,70.81
2023-04-15T12:26:18.162Z,71.28
2023-04-15T12:27:21.161Z,71.77
2023-04-15T12:28:23.463Z,71.86
2023-04-15T12:29:29.899Z,71.95
2023-04-15T12:30:32.429Z,72.00
2023-04-15T12:31:39.374Z,72.91
2023-04-15T12:32:43.513Z,73.22
2023-04-15T12:33:48.936Z,73.05
2023-04-15T12:34:52.279Z,73.56
2023-04-15T12:35:54.848Z,72.83
2023-04-15T12:36:57.926Z,71.84
2023-04-15T12:38:00.373Z,71.74
2023-04-15T12:39:04.687Z,71.43
2023-04-15T12:40:08.841Z,71.67
2023-04-15T12:41:12.138Z,72.01
2023-04-15T12:42:15.905Z,72.18
2023-04-15T12:43:18.269Z,72.46
2023-04-15T12:44:24.023Z,72.42
2023-04-15T12:45:26.878Z,72.01
2023-04-15T12:46:30.856Z,72.20
2023-04-15T12:47:33.224Z,71.89
2023-04-15T12:48:35.804Z,71.78
2023-04-15T12:49:38.260Z,71.85
2023-04-15T12:50:40.893Z,71.62
2023-04-15T12:51:43.344Z,71.66
2023-04-15T12:52:45.562Z,71.53
2023-04-15T12:53:49.606Z,71.62
2023-04-15T12:54:53.184Z,71.68
2023-04-15T12:55:55.609Z,71.25
2023-04-15T12:56:58.893Z,71.08
2023-04-15T12:58:01.081Z,71.09
2023-04-15T12:59:03.435Z,70.79
2023-04-15T13:00:08.406Z,71.16
2023-04-15T13:01:11.314Z,71.02
2023-04-15T13:02:14.006Z,71.17
2023-04-15T13:03:16.626Z,70.82
2023-04-15T13:04:20.725Z,71.22
2023-04-15T13:05:23.124Z,70.96
2023-04-15T13:06:25.326Z,70.90
2023-04-15T13:07:27.699Z,70.67
2023-04-15T13:08:29.909Z,70.01
2023-04-15T13:09:33.104Z,69.79
2023-04-15T13:10:38.882Z,69.59
2023-04-15T13:11:41.300Z,69.27
2023-04-15T13:12:43.603Z,68.96
2023-04-15T13:13:46.067Z,68.53
2023-04-15T13:14:48.265Z,67.89
2023-04-15T13:15:50.616Z,67.38
2023-04-15T13:16:53.825Z,67.33
2023-04-15T13:17:56.075Z,67.11
2023-04-15T13:18:59.553Z,67.10
2023-04-15T13:20:02.119Z,67.26
2023-04-15T13:21:05.444Z,67.37
2023-04-15T13:22:08.451Z,67.25
2023-04-15T13:23:10.649Z,66.96
2023-04-15T13:24:12.865Z,66.70
2023-04-15T13:25:15.083Z,66.72
2023-04-15T13:26:18.416Z,66.01
2023-04-15T13:27:21.392Z,65.95
2023-04-15T13:28:23.565Z,65.72
2023-04-15T13:29:25.838Z,65.48
2023-04-15T13:30:28.233Z,65.56
2023-04-15T13:31:30.610Z,65.23
2023-04-15T13:32:33.060Z,64.95
2023-04-15T13:33:35.356Z,65.24
2023-04-15T13:34:37.627Z,64.98
2023-04-15T13:35:40.470Z,65.13
2023-04-15T13:36:42.685Z,65.42
2023-04-15T13:37:44.876Z,65.28
2023-04-15T13:38:49.107Z,65.46
2023-04-15T13:39:52.762Z,65.54
2023-04-15T13:40:54.974Z,65.61
2023-04-15T13:41:57.528Z,65.68
2023-04-15T13:43:00.170Z,65.54
2023-04-15T13:44:02.531Z,65.34